Albuquerque, NM

4:55 AM MDT on September 17, 2014 (GMT -0600)
UNM Area West | Change Station
CLOSE
Current Station
Personal Weather Station
Location: Albuquerque, NM
Elevation: 5133 ft
Nearby Weather Stations

Elev 5133 ft 35.09 °N, 106.63 °W | Updated 11 minutes ago

Mostly Cloudy
Mostly Cloudy
61.9 °F
Feels Like 61.9 °F
N
0.0
Wind Variable Wind from SSW
Gusts 1.0 mph

Today
High -- | Low -- °F
--% Chance of Precip.
Yesterday
High -- | Low -- °F
Precip. -- in
6:50 AM 7:10 PM
Last Quarter, 37% visible
Pressure 29.98 in
Visibility 10.0 miles
Clouds Scattered Clouds 3500 ft
Overcast 12000 ft
Dew Point 56 °F
Humidity 81%
Rainfall 0.00 in
Snow Depth 0 in , 1 in , 1 in
UV 0 out of 12
Pollen 5.30 out of 12
Air Quality Not available.
Flu Activity Not available.
METAR KABQ 171052Z 00000KT 10SM SCT035 OVC120 17/13 A3017 RMK AO2 SLP151 MTNS OBSC NE-SE T01670128

More Conditions Fewer Conditions

Pressure 29.98 in
Visibility 10.0 miles
Clouds Scattered Clouds 3500 ft
Overcast 12000 ft
Dew Point 56 °F
Humidity 81%
Rainfall 0.00 in
Snow Depth 0 in , 1 in , 1 in
UV 0 out of 12
Pollen 5.30 out of 12
Air Quality Not available.
Flu Activity Not available.
METAR KABQ 171052Z 00000KT 10SM SCT035 OVC120 17/13 A3017 RMK AO2 SLP151 MTNS OBSC NE-SE T01670128

More Conditions Fewer Conditions

10-Day Weather Forecast

Almanac

Astronomy

Sep. 17, 2014 Rise Set
Actual Time 6:50 AM MDT 7:10 PM MDT
Civil Twilight 6:25 AM MDT 7:35 PM MDT
Nautical Twilight 5:55 AM MDT 8:05 PM MDT
Astronomical Twilight 5:25 AM MDT 8:35 PM MDT
Moon 1:02 AM MDT 3:13 PM MDT
Length of Visible Light 13h 10m
Length of Day
12h 19m
Tomorrow will be 2m 11s shorter.
Last Quarter, 37% of the Moon is Illuminated
Today
Last Quarter
Sep 24
New
Oct 1
First Quarter
Oct 8
Full
Oct 15
Last Quarter

Today's Extremes

State Highs State Lows

Community

WunderPhotos

Upload Photos

1,753,993 photos uploaded!

Nearby

Snow Depth

Station Depth Elevation
Red River Pass #2 0 in 9850 ft
Frisco Divide 0 in 8000 ft
North Costilla 1 in 10600 ft
Sierra Blanca 1 in 10280 ft
Senorita Divide #2 0 in 8600 ft

Earthquake Activity

City Distance Mag. Time & Date
No recent earthquake activity has been reported nearby.
Minimum magnitude displayed is 2.5.

Coastal Water Temperatures

Place Temperature
No Stations Reporting

Nearby Weather Stations